Altamont, Kansas
Current Conditions -  °F | °C
As of 12:52 AM on Thursday 23 Oct 2014 (Local Time) from KPPF Reporting Station
Broken Clouds Broken Clouds  
Wind Chill: 64°   Ceiling: 5500
Heat Index: 64°   Visibility: 10mi
Dew Point: 57°   Wind: 5mph
Humidity: 78%   Direction: 210°SSW
Pressure: 30.13"   Gusts: NA
Location:  37.19°N, 95.3°W
Report Text: KPPF 230552Z AUTO 21004KT 10SM SCT048 BKN055 BKN075 18/14 A3013 RMK AO2 SLP194 T01780139 10206 20172 402610144 50003
Loading
Personal Weather Stations






























Interactive Weather Map
Tropical Storm Tracking
New forecast layout! Learn more

10-Day Weather Forecast

Advertisements
Track Severe Weather on mobile